Time;durP1;ratioP1;P1;durP2;ratioP2;P2;SDS_P1;SDS_P2;PMS_P1;PMS_P2;Temp;Humidity;BMP_temperature;BMP_pressure;BME280_temperature;BME280_humidity;BME280_pressure;Samples;Min_cycle;Max_cycle;Signal;HPM_P1;HPM_P2
2023/08/11 00:02:01;;;;;;;10.02;6.22;;;;;;;14.70;100.00;97100.16;5012425;28;20403;-71
2023/08/11 00:04:26;;;;;;;8.63;5.30;;;;;;;14.64;100.00;97102.47;5010507;28;20030;-71
2023/08/11 00:06:52;;;;;;;15.00;6.13;;;;;;;14.51;100.00;97098.41;5012595;28;20034;-71
2023/08/11 00:09:18;;;;;;;10.50;6.75;;;;;;;14.34;100.00;97092.38;5012156;28;20085;-70
2023/08/11 00:11:44;;;;;;;9.38;6.22;;;;;;;14.44;100.00;97090.06;5013369;28;20041;-69
2023/08/11 00:14:09;;;;;;;8.50;5.40;;;;;;;14.54;100.00;97098.41;5013112;28;20034;-70
2023/08/11 00:16:35;;;;;;;10.20;5.75;;;;;;;14.64;100.00;97099.72;5013936;28;20085;-71
2023/08/11 00:19:00;;;;;;;9.68;6.45;;;;;;;14.69;100.00;97098.53;5012602;28;20034;-71
2023/08/11 00:21:26;;;;;;;9.00;5.57;;;;;;;14.70;100.00;97105.66;5013408;28;20042;-70
2023/08/11 00:23:52;;;;;;;10.18;6.10;;;;;;;14.58;100.00;97111.47;5013312;28;20032;-71
2023/08/11 00:26:17;;;;;;;7.10;5.40;;;;;;;14.48;100.00;97107.44;5013822;28;20107;-71
2023/08/11 00:28:44;;;;;;;9.88;5.60;;;;;;;14.44;100.00;97104.66;5013264;28;20038;-71
2023/08/11 00:31:09;;;;;;;10.32;5.88;;;;;;;14.35;100.00;97112.47;5015219;28;20079;-70
2023/08/11 00:33:36;;;;;;;10.32;5.53;;;;;;;14.39;100.00;97118.00;5016871;28;20116;-70
2023/08/11 00:36:01;;;;;;;8.45;5.88;;;;;;;14.42;100.00;97108.97;5016603;28;20070;-71
2023/08/11 00:38:36;;;;;;;8.73;6.30;;;;;;;14.37;100.00;97106.56;5017005;28;20088;-73
2023/08/11 00:41:02;;;;;;;9.30;6.07;;;;;;;14.45;100.00;97114.50;5016697;28;20037;-70
2023/08/11 00:43:27;;;;;;;9.35;5.15;;;;;;;14.50;100.00;97111.38;5016515;28;20034;-71
2023/08/11 00:45:52;;;;;;;8.57;5.47;;;;;;;14.41;100.00;97124.72;5016648;28;20602;-71
2023/08/11 00:48:18;;;;;;;8.35;5.50;;;;;;;14.36;100.00;97122.31;5018459;28;20121;-71
2023/08/11 00:50:44;;;;;;;8.68;5.38;;;;;;;14.36;100.00;97116.78;5023777;28;20037;-70
2023/08/11 00:53:09;;;;;;;10.48;5.53;;;;;;;14.48;100.00;97123.97;5019972;28;20065;-69
2023/08/11 00:55:35;;;;;;;10.35;5.40;;;;;;;14.47;100.00;97127.91;5016821;28;20026;-69
2023/08/11 00:58:01;;;;;;;8.60;6.00;;;;;;;14.51;100.00;97120.44;4998802;28;20030;-70
2023/08/11 01:00:28;;;;;;;11.10;5.70;;;;;;;14.60;100.00;97117.41;5016450;28;20054;-70
2023/08/11 01:02:53;;;;;;;9.68;5.85;;;;;;;14.47;100.00;97123.16;5016216;28;20038;-70
2023/08/11 01:05:19;;;;;;;9.07;5.38;;;;;;;14.41;100.00;97126.69;5016326;28;20041;-70
2023/08/11 01:08:08;;;;;;;8.32;5.43;;;;;;;14.44;100.00;97132.22;5015889;28;20030;-71
2023/08/11 01:10:45;;;;;;;10.97;5.23;;;;;;;14.46;100.00;97127.13;5015631;28;20042;-70
2023/08/11 01:13:18;;;;;;;6.53;5.22;;;;;;;14.43;100.00;97132.59;5015506;28;20037;-70
2023/08/11 01:15:51;;;;;;;9.07;5.65;;;;;;;14.45;100.00;97133.78;5020474;28;20437;-71
2023/08/11 01:18:18;;;;;;;7.57;4.95;;;;;;;14.44;100.00;97132.22;5023841;28;20076;-71
2023/08/11 01:20:48;;;;;;;9.68;5.90;;;;;;;14.47;100.00;97136.16;5022057;28;20034;-70
2023/08/11 01:23:21;;;;;;;9.25;5.28;;;;;;;14.45;100.00;97131.03;5019677;28;20530;-71
2023/08/11 01:25:51;;;;;;;8.90;5.28;;;;;;;14.44;100.00;97136.91;5016596;28;20056;-70
2023/08/11 01:28:17;;;;;;;12.52;5.78;;;;;;;14.41;100.00;97132.19;5030614;28;20029;-70
2023/08/11 01:30:43;;;;;;;7.95;5.60;;;;;;;14.39;100.00;97134.53;5030652;28;20034;-70
2023/08/11 01:33:08;;;;;;;11.32;6.07;;;;;;;14.42;100.00;97139.28;5015176;28;20099;-70
2023/08/11 01:35:34;;;;;;;9.85;6.05;;;;;;;14.55;100.00;97140.56;5015460;28;20056;-70
2023/08/11 01:37:59;;;;;;;11.68;5.65;;;;;;;14.53;100.00;97127.19;5015697;28;20048;-71
2023/08/11 01:40:26;;;;;;;12.20;5.43;;;;;;;14.45;100.00;97141.28;5015887;28;20056;-71
2023/08/11 01:42:54;;;;;;;7.03;5.13;;;;;;;14.21;100.00;97139.91;5015008;28;20084;-71
2023/08/11 01:45:21;;;;;;;10.05;5.20;;;;;;;14.17;100.00;97139.06;5015252;28;20025;-72
2023/08/11 01:47:48;;;;;;;6.90;5.20;;;;;;;14.19;100.00;97131.19;5018698;28;20054;-72
2023/08/11 01:50:16;;;;;;;8.32;4.97;;;;;;;14.26;100.00;97142.28;5015289;28;20040;-70
2023/08/11 01:52:43;;;;;;;6.93;4.95;;;;;;;14.13;100.00;97142.59;5015047;28;20494;-70
2023/08/11 01:55:10;;;;;;;7.63;5.45;;;;;;;14.13;100.00;97142.59;5014259;28;20129;-71
2023/08/11 01:57:39;;;;;;;7.20;5.13;;;;;;;14.11;100.00;97142.16;5015753;28;20164;-71
2023/08/11 02:00:16;;;;;;;9.43;5.63;;;;;;;14.08;100.00;97144.88;4996743;28;20026;-71
2023/08/11 02:02:45;;;;;;;8.68;5.47;;;;;;;14.12;100.00;97146.50;5013534;28;20037;-71
2023/08/11 02:05:12;;;;;;;10.63;5.03;;;;;;;14.18;100.00;97146.16;5011801;28;20114;-71
2023/08/11 02:07:39;;;;;;;11.65;5.78;;;;;;;14.20;100.00;97143.81;5013467;28;20026;-68
2023/08/11 02:10:06;;;;;;;9.20;5.13;;;;;;;14.24;100.00;97141.88;5013295;28;20037;-71
2023/08/11 02:12:32;;;;;;;9.55;5.80;;;;;;;14.21;100.00;97139.91;5014026;28;20034;-72
2023/08/11 02:14:57;;;;;;;11.00;6.70;;;;;;;14.20;100.00;97130.03;4995991;28;20067;-70
2023/08/11 02:17:23;;;;;;;9.52;5.30;;;;;;;14.09;100.00;97143.72;5013126;28;20517;-72
2023/08/11 02:19:49;;;;;;;7.70;5.57;;;;;;;14.01;100.00;97144.81;5013095;28;20159;-71
2023/08/11 02:22:16;;;;;;;7.68;5.78;;;;;;;14.01;100.00;97133.78;5013043;28;20388;-71
2023/08/11 02:24:41;;;;;;;10.18;5.03;;;;;;;14.03;100.00;97132.25;5013591;28;20033;-70
2023/08/11 02:27:09;;;;;;;9.20;5.60;;;;;;;13.94;100.00;97140.03;5013224;28;20022;-70
2023/08/11 02:29:34;;;;;;;11.10;5.15;;;;;;;13.90;100.00;97137.25;5012722;28;20042;-71
2023/08/11 02:32:03;;;;;;;12.05;6.05;;;;;;;13.90;100.00;97137.25;5014101;28;20129;-71
2023/08/11 02:34:29;;;;;;;8.32;5.65;;;;;;;13.93;100.00;97130.97;5014172;28;20033;-70
2023/08/11 02:36:54;;;;;;;8.23;5.85;;;;;;;13.87;100.00;97128.94;5014202;28;20376;-71
2023/08/11 02:39:20;;;;;;;11.38;5.63;;;;;;;13.88;100.00;97128.56;5014945;28;20033;-71
2023/08/11 02:41:45;;;;;;;6.13;4.55;;;;;;;13.89;100.00;97135.66;5016022;28;20056;-71
2023/08/11 02:44:10;;;;;;;8.77;5.72;;;;;;;13.83;100.00;97126.16;5016586;28;20127;-72
2023/08/11 02:46:36;;;;;;;6.60;4.85;;;;;;;13.64;100.00;97135.38;5017392;28;20034;-72
2023/08/11 02:49:01;;;;;;;7.72;5.50;;;;;;;13.59;100.00;97132.97;5013429;28;20101;-72
2023/08/11 02:51:27;;;;;;;9.20;5.00;;;;;;;13.54;100.00;97128.59;5013920;28;20116;-70
2023/08/11 02:53:53;;;;;;;8.43;6.03;;;;;;;13.29;100.00;97135.72;5011367;28;20128;-70
2023/08/11 02:56:18;;;;;;;9.07;6.20;;;;;;;13.15;100.00;97139.09;5011265;28;20037;-71
2023/08/11 02:58:44;;;;;;;8.57;5.75;;;;;;;13.11;100.00;97135.50;5012182;28;20160;-70
2023/08/11 03:01:09;;;;;;;8.82;5.53;;;;;;;13.29;100.00;97141.19;5012275;28;20040;-71
2023/08/11 03:03:35;;;;;;;11.30;5.38;;;;;;;13.41;100.00;97132.75;5012302;28;20785;-70
2023/08/11 03:06:00;;;;;;;6.90;5.05;;;;;;;13.55;100.00;97134.88;5010784;28;20033;-70
2023/08/11 03:08:25;;;;;;;8.73;5.57;;;;;;;13.54;100.00;97138.78;5012656;28;20048;-72
2023/08/11 03:10:51;;;;;;;8.77;5.35;;;;;;;13.50;100.00;97144.25;5012754;28;20025;-71
2023/08/11 03:13:17;;;;;;;8.63;5.05;;;;;;;13.52;100.00;97136.44;5013127;28;20064;-71
2023/08/11 03:15:43;;;;;;;6.65;5.50;;;;;;;13.55;100.00;97140.38;5022218;28;20042;-72
2023/08/11 03:18:10;;;;;;;12.02;5.43;;;;;;;13.60;100.00;97147.53;5035808;28;20060;-69
2023/08/11 03:20:36;;;;;;;7.55;5.43;;;;;;;13.68;100.00;97147.22;5022305;28;20034;-70
2023/08/11 03:23:03;;;;;;;8.95;5.20;;;;;;;13.65;100.00;97144.41;5012063;28;20044;-71
2023/08/11 03:25:28;;;;;;;11.38;6.30;;;;;;;13.64;100.00;97151.09;5012234;28;20044;-70
2023/08/11 03:27:53;;;;;;;9.52;6.13;;;;;;;13.68;100.00;97160.19;5012040;28;20026;-72
2023/08/11 03:30:19;;;;;;;8.55;6.05;;;;;;;13.73;100.00;97151.59;5011959;28;20399;-71
2023/08/11 03:32:44;;;;;;;12.30;5.75;;;;;;;13.65;100.00;97161.75;5011436;28;20105;-71
2023/08/11 03:35:10;;;;;;;12.93;5.45;;;;;;;13.51;100.00;97158.81;5008835;28;20057;-70
2023/08/11 03:37:35;;;;;;;6.80;5.03;;;;;;;13.51;100.00;97158.81;5012153;28;20030;-69
2023/08/11 03:40:06;;;;;;;9.27;5.50;;;;;;;13.51;100.00;97154.09;5011792;28;20038;-72
2023/08/11 03:42:31;;;;;;;8.25;5.60;;;;;;;13.58;100.00;97158.91;5011551;28;20036;-71
2023/08/11 03:44:57;;;;;;;10.30;5.20;;;;;;;13.58;100.00;97161.66;5012406;28;20450;-71
2023/08/11 03:47:22;;;;;;;16.67;5.45;;;;;;;13.54;100.00;97158.06;5019966;28;20241;-70
2023/08/11 03:49:48;;;;;;;13.57;5.68;;;;;;;13.50;100.00;97157.22;5024372;28;20048;-70
2023/08/11 03:52:13;;;;;;;11.02;5.55;;;;;;;13.37;100.00;97164.94;5021539;28;20029;-69
2023/08/11 03:54:39;;;;;;;9.82;5.75;;;;;;;13.35;100.00;97165.31;5012211;28;20029;-71
2023/08/11 03:57:04;;;;;;;9.77;5.97;;;;;;;13.32;100.00;97166.03;5012740;28;20095;-71
2023/08/11 03:59:30;;;;;;;9.75;6.05;;;;;;;13.39;100.00;97162.59;5012224;28;20034;-70
2023/08/11 04:01:56;;;;;;;10.40;6.32;;;;;;;13.38;100.00;97169.28;5017651;28;20153;-71
2023/08/11 04:04:21;;;;;;;9.23;6.00;;;;;;;13.45;100.00;97177.63;5019514;28;20030;-72
2023/08/11 04:06:46;;;;;;;8.82;5.55;;;;;;;13.39;100.00;97170.84;5023992;28;20045;-72
2023/08/11 04:09:12;;;;;;;9.98;5.78;;;;;;;13.27;100.00;97168.28;5025031;28;20030;-72
2023/08/11 04:11:38;;;;;;;7.90;6.15;;;;;;;13.43;100.00;97170.91;5022609;28;20038;-70
2023/08/11 04:14:05;;;;;;;8.55;6.15;;;;;;;13.51;100.00;97169.84;5012428;28;20366;-71
2023/08/11 04:16:30;;;;;;;7.22;5.22;;;;;;;13.54;100.00;97169.06;5012911;28;20104;-68
2023/08/11 04:18:55;;;;;;;11.10;5.60;;;;;;;13.54;100.00;97171.81;5012770;28;20475;-72
2023/08/11 04:21:23;;;;;;;7.43;5.45;;;;;;;13.52;100.00;97180.47;5013072;28;20080;-70
2023/08/11 04:23:48;;;;;;;7.80;5.30;;;;;;;13.60;100.00;97178.59;5010861;28;20033;-70
2023/08/11 04:26:13;;;;;;;9.32;5.80;;;;;;;13.76;100.00;97173.66;5012211;28;20039;-71
2023/08/11 04:28:41;;;;;;;7.93;5.32;;;;;;;13.93;100.00;97174.22;4994549;28;20018;-71
2023/08/11 04:31:07;;;;;;;10.45;6.05;;;;;;;13.79;100.00;97183.13;5012551;28;20430;-71
2023/08/11 04:33:32;;;;;;;7.53;5.53;;;;;;;13.71;100.00;97175.97;5011305;28;20172;-72
2023/08/11 04:35:58;;;;;;;10.18;5.28;;;;;;;13.79;100.00;97185.09;5012317;28;20116;-72
2023/08/11 04:38:24;;;;;;;7.75;5.30;;;;;;;13.86;100.00;97183.19;5011111;28;20049;-71
2023/08/11 04:40:50;;;;;;;8.52;5.72;;;;;;;13.97;100.00;97183.31;5012195;28;20026;-70
2023/08/11 04:43:17;;;;;;;13.25;5.45;;;;;;;14.09;100.00;97180.31;4994092;28;20041;-72
2023/08/11 04:45:42;;;;;;;11.57;5.70;;;;;;;14.15;100.00;97175.25;5012367;28;20387;-72
2023/08/11 04:48:08;;;;;;;9.38;6.25;;;;;;;13.72;100.00;97183.84;5012665;28;20033;-72
2023/08/11 04:50:34;;;;;;;9.20;6.65;;;;;;;13.33;100.00;97188.88;5013075;28;20108;-71
2023/08/11 04:53:00;;;;;;;11.10;6.82;;;;;;;13.30;100.00;97190.34;5013335;28;20037;-71
2023/08/11 04:55:25;;;;;;;15.27;6.70;;;;;;;13.58;100.00;97178.19;5013149;28;20383;-71
2023/08/11 04:57:51;;;;;;;11.75;6.47;;;;;;;13.91;100.00;97184.84;5013632;28;20479;-70
2023/08/11 05:00:17;;;;;;;8.82;6.15;;;;;;;14.18;100.00;97179.22;5013619;28;20022;-72
2023/08/11 05:02:43;;;;;;;8.25;6.32;;;;;;;14.41;100.00;97184.56;5012916;28;20068;-71
2023/08/11 05:05:09;;;;;;;6.78;5.25;;;;;;;14.44;100.00;97186.53;5012946;28;20030;-71
2023/08/11 05:07:35;;;;;;;8.40;5.43;;;;;;;14.62;100.00;97184.75;5013397;28;20026;-72
2023/08/11 05:10:01;;;;;;;8.25;5.90;;;;;;;15.15;100.00;97180.78;5012720;28;20399;-71
2023/08/11 05:12:26;;;;;;;10.15;5.35;;;;;;;16.39;100.00;97181.66;5012952;28;20033;-72
2023/08/11 05:14:51;;;;;;;7.55;4.85;;;;;;;17.88;100.00;97191.31;5013980;28;20113;-73
2023/08/11 05:17:17;;;;;;;8.23;4.47;;;;;;;18.75;100.00;97197.13;5014122;28;20026;-72
2023/08/11 05:19:42;;;;;;;10.40;4.72;;;;;;;19.43;97.51;97205.66;5016507;28;20033;-71
2023/08/11 05:22:08;;;;;;;8.43;4.80;;;;;;;19.99;92.46;97208.19;5015775;28;20046;-71
2023/08/11 05:24:33;;;;;;;12.40;4.68;;;;;;;21.12;88.08;97217.28;5016360;28;20041;-72
2023/08/11 05:26:59;;;;;;;8.07;4.18;;;;;;;22.61;75.79;97218.72;5016729;28;20053;-71
2023/08/11 05:29:24;;;;;;;12.90;4.40;;;;;;;23.53;65.38;97230.81;5016099;28;20033;-72
2023/08/11 05:31:49;;;;;;;5.85;3.85;;;;;;;24.24;62.90;97230.84;5015531;28;20579;-69
2023/08/11 05:34:15;;;;;;;7.32;4.15;;;;;;;25.11;56.16;97240.94;5015550;28;20551;-70
2023/08/11 05:36:40;;;;;;;7.88;4.00;;;;;;;25.94;54.62;97241.75;5013971;28;20022;-71
2023/08/11 05:39:08;;;;;;;6.30;4.03;;;;;;;26.22;50.56;97235.56;5015932;28;20033;-70
2023/08/11 05:41:33;;;;;;;7.65;3.75;;;;;;;26.35;51.77;97241.06;5021118;28;20033;-70
2023/08/11 05:43:59;;;;;;;6.22;4.22;;;;;;;23.86;57.77;97234.34;5032102;28;20053;-70
2023/08/11 05:46:24;;;;;;;14.07;4.13;;;;;;;23.76;62.46;97227.00;5032134;28;20034;-71
2023/08/11 05:48:51;;;;;;;6.80;3.90;;;;;;;24.81;56.44;97233.91;5016538;28;20073;-71
2023/08/11 05:51:16;;;;;;;5.95;3.67;;;;;;;25.37;55.08;97235.31;5030794;28;20156;-71
2023/08/11 05:53:42;;;;;;;10.00;4.18;;;;;;;25.88;52.83;97237.94;5014761;28;20065;-71
2023/08/11 05:56:08;;;;;;;8.85;5.05;;;;;;;26.27;55.33;97234.94;5013673;28;20033;-71
2023/08/11 05:58:33;;;;;;;6.82;3.92;;;;;;;27.24;50.74;97234.72;5013127;28;20100;-71
2023/08/11 06:01:01;;;;;;;6.13;3.30;;;;;;;28.43;46.45;97243.63;5014415;28;20088;-71
2023/08/11 06:03:30;;;;;;;8.30;3.95;;;;;;;27.70;47.43;97250.88;5014152;28;20109;-70
2023/08/11 06:06:04;;;;;;;7.88;3.95;;;;;;;27.32;48.16;97243.66;5013644;28;20026;-71
2023/08/11 06:08:30;;;;;;;8.48;4.00;;;;;;;24.00;57.33;97230.34;5014238;28;20054;-71
2023/08/11 06:10:55;;;;;;;6.88;4.43;;;;;;;21.39;75.65;97219.97;5014226;28;20038;-71
2023/08/11 06:13:22;;;;;;;8.18;4.75;;;;;;;23.09;70.41;97231.94;5013985;28;20037;-70
2023/08/11 06:15:51;;;;;;;5.53;4.10;;;;;;;23.91;68.05;97227.41;5013071;28;20037;-70
2023/08/11 06:18:17;;;;;;;6.40;3.97;;;;;;;25.19;60.04;97233.88;5013962;28;20034;-71
2023/08/11 06:20:43;;;;;;;5.28;4.00;;;;;;;25.72;58.29;97236.09;4995673;28;20029;-71
2023/08/11 06:23:09;;;;;;;7.45;3.88;;;;;;;26.94;53.12;97247.59;5012660;28;20032;-70
2023/08/11 06:25:34;;;;;;;6.05;3.90;;;;;;;26.97;51.84;97243.84;5014145;28;20037;-69
2023/08/11 06:27:59;;;;;;;5.53;3.40;;;;;;;27.16;51.01;97246.72;5012759;28;20082;-70
2023/08/11 06:30:28;;;;;;;5.93;3.55;;;;;;;26.62;53.75;97249.66;5013727;28;20061;-70
2023/08/11 06:32:53;;;;;;;5.50;3.35;;;;;;;28.62;48.30;97255.66;5012406;28;20073;-71
2023/08/11 06:35:19;;;;;;;6.20;3.42;;;;;;;30.13;43.47;97262.28;5013664;28;20562;-70
2023/08/11 06:37:44;;;;;;;4.60;3.03;;;;;;;30.50;42.36;97259.09;5014884;28;20506;-69
2023/08/11 06:40:11;;;;;;;3.58;2.60;;;;;;;30.95;41.13;97259.06;5013562;28;20502;-70
2023/08/11 06:42:38;;;;;;;6.30;3.22;;;;;;;29.66;42.52;97263.91;5014163;28;20115;-70
2023/08/11 06:45:04;;;;;;;4.43;2.92;;;;;;;28.91;45.29;97255.06;5016749;28;20040;-71
2023/08/11 06:47:31;;;;;;;6.45;3.28;;;;;;;27.69;47.13;97260.56;5013863;28;20022;-69
2023/08/11 06:49:56;;;;;;;5.85;3.15;;;;;;;29.17;44.07;97258.25;5013673;28;20030;-68
2023/08/11 06:52:22;;;;;;;8.23;3.15;;;;;;;29.99;42.96;97260.22;5015058;28;20418;-70
2023/08/11 06:54:47;;;;;;;5.40;3.25;;;;;;;29.44;43.82;97261.38;5015424;28;20033;-69
2023/08/11 06:57:13;;;;;;;5.47;3.38;;;;;;;30.61;41.73;97264.16;5014622;28;20112;-69
2023/08/11 06:59:38;;;;;;;8.45;3.35;;;;;;;30.68;41.44;97266.56;5014259;28;20033;-70
2023/08/11 07:02:04;;;;;;;4.00;2.70;;;;;;;31.02;40.73;97264.31;5013696;28;20036;-69
2023/08/11 07:04:29;;;;;;;6.85;2.95;;;;;;;31.07;40.06;97269.28;5012284;28;20372;-68
2023/08/11 07:06:55;;;;;;;7.07;3.78;;;;;;;27.65;47.03;97262.75;5013253;28;20086;-69
2023/08/11 07:09:21;;;;;;;5.15;3.00;;;;;;;28.48;46.83;97262.69;5012135;28;20553;-69
2023/08/11 07:11:46;;;;;;;4.35;2.97;;;;;;;29.87;43.82;97262.03;5011758;28;20071;-68
2023/08/11 07:14:12;;;;;;;7.13;3.03;;;;;;;31.13;40.87;97258.81;5012749;28;20030;-69
2023/08/11 07:16:37;;;;;;;8.50;3.42;;;;;;;31.40;40.34;97263.31;5011681;28;20048;-70
2023/08/11 07:19:03;;;;;;;4.70;2.75;;;;;;;32.01;38.90;97267.41;5011652;28;20042;-69
2023/08/11 07:21:28;;;;;;;5.70;2.95;;;;;;;31.61;39.66;97269.78;5011645;28;20479;-69
2023/08/11 07:23:54;;;;;;;7.50;3.05;;;;;;;32.76;37.50;97270.50;5011264;28;20030;-69
2023/08/11 07:26:19;;;;;;;4.20;3.08;;;;;;;33.17;35.97;97284.50;5012902;28;20065;-69
2023/08/11 07:28:45;;;;;;;5.90;3.05;;;;;;;32.96;36.00;97278.91;5012921;28;20054;-71
2023/08/11 07:31:11;;;;;;;6.25;3.10;;;;;;;31.09;40.03;97263.91;5013075;28;20057;-71
2023/08/11 07:33:36;;;;;;;6.13;3.05;;;;;;;32.38;37.51;97284.59;5012407;28;20068;-70
2023/08/11 07:36:01;;;;;;;4.65;3.10;;;;;;;32.30;37.35;97274.19;5011511;28;20546;-69
2023/08/11 07:38:27;;;;;;;6.30;3.17;;;;;;;32.56;37.73;97274.94;5012589;28;20037;-69
2023/08/11 07:40:52;;;;;;;5.30;3.28;;;;;;;32.54;37.29;97271.84;5010819;28;20041;-71
2023/08/11 07:43:17;;;;;;;6.43;3.38;;;;;;;32.56;36.42;97277.03;5012135;28;20540;-71
2023/08/11 07:45:43;;;;;;;4.25;2.88;;;;;;;32.02;37.90;97271.81;5011446;28;20156;-69
2023/08/11 07:48:08;;;;;;;4.80;2.90;;;;;;;30.98;40.31;97266.56;5013366;28;20026;-69
2023/08/11 07:50:36;;;;;;;6.80;3.20;;;;;;;31.00;41.00;97267.63;5011712;28;20487;-70
2023/08/11 07:53:01;;;;;;;4.93;3.13;;;;;;;31.45;40.08;97268.25;5012335;28;20057;-69
2023/08/11 07:55:27;;;;;;;4.35;2.97;;;;;;;30.88;42.25;97272.31;5012851;28;20062;-68
2023/08/11 07:57:52;;;;;;;5.78;3.50;;;;;;;29.37;44.42;97256.88;5012722;28;20030;-71
2023/08/11 08:00:20;;;;;;;6.13;3.10;;;;;;;30.52;43.54;97258.59;5012332;28;20072;-70
2023/08/11 08:02:46;;;;;;;4.60;3.20;;;;;;;29.80;44.11;97266.00;5012081;28;20475;-69
2023/08/11 08:05:12;;;;;;;4.38;2.88;;;;;;;31.02;42.30;97265.09;5013318;28;20033;-69
2023/08/11 08:07:37;;;;;;;5.22;3.25;;;;;;;30.93;42.12;97261.59;5012502;28;20539;-69
2023/08/11 08:10:08;;;;;;;5.15;3.50;;;;;;;31.89;39.93;97271.41;5017376;28;20541;-70
2023/08/11 08:12:37;;;;;;;5.38;3.28;;;;;;;29.71;44.80;97254.75;5033410;28;20061;-70
2023/08/11 08:15:05;;;;;;;5.85;4.00;;;;;;;29.77;44.49;97252.84;5016375;28;20041;-71
2023/08/11 08:17:31;;;;;;;5.43;3.63;;;;;;;30.03;44.47;97260.78;5011211;28;20376;-71
2023/08/11 08:19:57;;;;;;;5.15;3.67;;;;;;;30.20;44.22;97258.28;5012116;28;20034;-71
2023/08/11 08:22:22;;;;;;;7.82;4.20;;;;;;;31.28;42.33;97261.63;5012092;28;20032;-70
2023/08/11 08:24:48;;;;;;;6.07;3.08;;;;;;;32.45;39.65;97268.38;5012065;28;20041;-71
2023/08/11 08:27:15;;;;;;;7.43;3.25;;;;;;;31.88;39.84;97272.69;5010976;28;20116;-71
2023/08/11 08:29:40;;;;;;;7.97;3.72;;;;;;;30.42;43.82;97264.34;5012120;28;20454;-71
2023/08/11 08:32:06;;;;;;;6.60;3.17;;;;;;;31.50;42.14;97269.66;5012036;28;20062;-72
2023/08/11 08:34:31;;;;;;;9.70;3.72;;;;;;;31.93;40.67;97269.16;5012037;28;20113;-71
2023/08/11 08:36:56;;;;;;;9.38;3.55;;;;;;;32.36;40.13;97270.13;5012175;28;20033;-72
2023/08/11 08:39:22;;;;;;;8.60;3.35;;;;;;;32.57;38.77;97268.00;5012092;28;20367;-71
2023/08/11 08:41:49;;;;;;;6.82;3.00;;;;;;;32.87;37.79;97276.25;5011982;28;20125;-70
2023/08/11 08:44:14;;;;;;;11.75;6.65;;;;;;;32.36;39.49;97272.97;5010907;28;20038;-71
2023/08/11 08:46:40;;;;;;;5.25;3.20;;;;;;;33.00;38.82;97275.06;5010377;28;20117;-71
2023/08/11 08:49:14;;;;;;;5.55;3.45;;;;;;;32.44;39.90;97269.69;5012459;28;20530;-71
2023/08/11 08:51:41;;;;;;;5.93;3.72;;;;;;;33.10;39.34;97270.75;5013166;28;20030;-71
2023/08/11 08:54:09;;;;;;;11.25;5.45;;;;;;;33.62;38.02;97270.56;5017016;28;20038;-71
2023/08/11 08:56:37;;;;;;;5.90;3.90;;;;;;;33.14;38.58;97271.31;5016075;28;20029;-71
2023/08/11 08:59:02;;;;;;;7.53;3.70;;;;;;;32.16;40.76;97256.81;5016625;28;20033;-72
2023/08/11 09:01:28;;;;;;;6.18;4.22;;;;;;;31.81;41.33;97263.31;5015869;28;20030;-70
2023/08/11 09:03:55;;;;;;;16.30;3.92;;;;;;;32.04;41.03;97262.84;5015826;28;20096;-71
2023/08/11 09:06:21;;;;;;;9.38;4.35;;;;;;;31.59;41.92;97260.25;5016275;28;20037;-71
2023/08/11 09:08:47;;;;;;;6.93;3.60;;;;;;;32.44;40.22;97258.34;5017442;28;20037;-71
2023/08/11 09:11:12;;;;;;;6.63;3.92;;;;;;;31.11;42.79;97250.03;5014495;28;20029;-70
2023/08/11 09:13:38;;;;;;;6.70;4.07;;;;;;;31.29;42.69;97248.22;5014369;28;20038;-70
2023/08/11 09:16:03;;;;;;;7.65;4.20;;;;;;;31.46;42.16;97246.41;5015051;28;20037;-70
2023/08/11 09:18:29;;;;;;;5.57;3.67;;;;;;;31.65;41.65;97251.81;5015560;28;20045;-72
2023/08/11 09:20:54;;;;;;;8.52;3.88;;;;;;;31.55;41.66;97246.31;5015039;28;20498;-71
2023/08/11 09:23:20;;;;;;;8.93;3.95;;;;;;;30.26;45.58;97233.72;5014883;28;20061;-71
2023/08/11 09:25:45;;;;;;;5.68;3.85;;;;;;;30.28;45.32;97240.44;5014059;28;20038;-71
2023/08/11 09:28:12;;;;;;;8.60;4.05;;;;;;;30.29;46.06;97230.72;5014165;28;20478;-68
2023/08/11 09:30:38;;;;;;;8.02;4.00;;;;;;;31.29;43.53;97236.91;5015509;28;20056;-69
2023/08/11 09:33:07;;;;;;;7.88;3.97;;;;;;;30.56;45.61;97231.72;5015283;28;20045;-70
2023/08/11 09:35:33;;;;;;;7.60;4.10;;;;;;;31.23;44.17;97229.13;5015985;28;20046;-70
2023/08/11 09:37:59;;;;;;;5.88;4.00;;;;;;;31.52;43.33;97238.03;5015900;28;20038;-70
2023/08/11 09:40:26;;;;;;;8.82;5.20;;;;;;;32.15;41.88;97232.56;5018722;28;20033;-70
2023/08/11 09:42:56;;;;;;;8.75;3.75;;;;;;;31.82;42.52;97233.75;5019983;28;20037;-70
2023/08/11 09:45:22;;;;;;;7.70;4.00;;;;;;;31.99;42.63;97227.47;5038364;28;20026;-69
2023/08/11 09:47:47;;;;;;;5.57;4.00;;;;;;;30.79;45.31;97218.72;5038256;28;20053;-69
2023/08/11 09:50:14;;;;;;;7.55;3.83;;;;;;;31.94;42.51;97222.53;5034077;28;20033;-70
2023/08/11 09:52:41;;;;;;;5.80;4.10;;;;;;;31.37;43.50;97221.84;5026387;28;20029;-70
2023/08/11 09:55:12;;;;;;;8.48;4.53;;;;;;;31.18;43.30;97229.06;5017104;28;20029;-71
2023/08/11 09:57:40;;;;;;;7.30;4.32;;;;;;;31.32;43.62;97224.63;5014605;28;20088;-70
2023/08/11 10:00:11;;;;;;;6.63;4.35;;;;;;;31.07;44.29;97229.69;5013680;28;20053;-71
2023/08/11 10:02:43;;;;;;;10.48;4.38;;;;;;;31.12;44.17;97225.38;5014695;28;20038;-70
2023/08/11 10:05:10;;;;;;;7.35;4.70;;;;;;;30.38;45.65;97223.41;5015727;28;20026;-70
2023/08/11 10:07:43;;;;;;;7.78;4.47;;;;;;;30.56;45.27;97228.88;5015810;28;20036;-70
2023/08/11 10:10:17;;;;;;;7.05;4.45;;;;;;;30.05;46.21;97232.84;4975392;28;1147537;-70
2023/08/11 10:12:48;;;;;;;16.23;10.57;;;;;;;30.38;45.88;97240.38;5015493;28;20026;-71
2023/08/11 10:15:16;;;;;;;9.20;5.40;;;;;;;30.04;46.75;97225.66;5014733;28;20069;-70
2023/08/11 10:17:42;;;;;;;7.83;3.57;;;;;;;30.14;46.47;97232.75;5015154;28;20507;-69
2023/08/11 10:20:09;;;;;;;6.32;4.50;;;;;;;30.11;46.49;97228.84;5014951;28;20184;-69
2023/08/11 10:22:35;;;;;;;10.07;4.68;;;;;;;30.48;46.55;97231.31;5013503;28;20036;-69
2023/08/11 10:25:04;;;;;;;9.05;4.68;;;;;;;30.54;46.32;97230.63;5015008;28;20030;-68
2023/08/11 10:27:30;;;;;;;10.75;4.28;;;;;;;30.66;45.65;97235.97;5020409;28;20050;-69
2023/08/11 10:29:56;;;;;;;8.00;4.25;;;;;;;30.43;46.53;97234.84;5019498;28;20034;-70
2023/08/11 10:32:23;;;;;;;10.10;5.30;;;;;;;29.95;47.16;97237.03;5031709;28;20147;-70
2023/08/11 10:34:52;;;;;;;6.57;4.85;;;;;;;30.26;46.67;97239.38;5016262;28;20030;-68
2023/08/11 10:37:17;;;;;;;9.00;5.15;;;;;;;30.23;46.76;97232.69;5015661;28;20057;-69
2023/08/11 10:39:42;;;;;;;7.03;4.57;;;;;;;30.31;47.17;97233.81;5015276;28;20037;-70
2023/08/11 10:42:14;;;;;;;8.35;5.15;;;;;;;29.85;48.42;97234.25;5015122;28;20033;-69
2023/08/11 10:44:45;;;;;;;10.27;4.93;;;;;;;30.00;48.13;97227.84;5015930;28;20037;-69
2023/08/11 10:47:10;;;;;;;8.10;4.60;;;;;;;29.78;49.13;97228.22;5015348;28;20022;-70
2023/08/11 10:49:41;;;;;;;8.50;5.07;;;;;;;29.55;49.91;97224.94;5014404;28;20022;-69
2023/08/11 10:52:06;;;;;;;8.40;4.40;;;;;;;29.76;50.49;97228.69;5014585;28;20041;-70
2023/08/11 10:54:33;;;;;;;8.88;4.43;;;;;;;30.14;49.07;97224.28;5014529;28;20034;-69
2023/08/11 10:57:02;;;;;;;7.35;5.00;;;;;;;29.96;48.49;97225.22;5014588;28;20613;-70
2023/08/11 10:59:30;;;;;;;9.55;5.05;;;;;;;30.22;49.39;97224.69;5015535;28;20029;-70
2023/08/11 11:01:56;;;;;;;10.00;4.47;;;;;;;30.06;48.94;97215.41;5014899;28;20469;-69
2023/08/11 11:04:32;;;;;;;6.03;4.53;;;;;;;29.05;52.93;97230.25;5014755;28;20383;-69
2023/08/11 11:07:01;;;;;;;9.07;5.15;;;;;;;27.75;56.49;97216.50;5014301;28;20115;-70
2023/08/11 11:09:27;;;;;;;8.35;4.50;;;;;;;28.28;56.45;97215.34;5012502;28;20022;-68
2023/08/11 11:11:53;;;;;;;6.53;4.28;;;;;;;28.30;55.87;97214.88;5013310;28;20036;-69
2023/08/11 11:14:19;;;;;;;6.30;3.95;;;;;;;28.51;55.64;97211.03;5012427;28;20026;-69
2023/08/11 11:16:44;;;;;;;6.35;4.28;;;;;;;28.28;56.89;97211.75;5013228;28;20034;-68
2023/08/11 11:19:10;;;;;;;8.65;4.38;;;;;;;28.35;56.32;97206.56;5012231;28;20157;-69
2023/08/11 11:21:38;;;;;;;7.93;4.15;;;;;;;28.26;57.42;97209.41;5013108;28;20506;-69
2023/08/11 11:24:04;;;;;;;7.15;4.75;;;;;;;28.02;59.81;97195.22;5012771;28;20033;-70